KELY/ELY METAR and TAF weather

Enter ICAO airport designator
Station Type Date Time Source
KELY METAR 2018/12/13 14:53 UTC NOAA

KELY 131453Z AUTO 17009KT 10SM CLR M14/M17 A3042 RMK AO2 SLP368 T11441172 50004 $


Station Type Date Time Source
KELY Decoded METAR 2018/12/13 14:53 UTC NOAA

ELY AIRPORT (YELLAND FIELD), NV, United States (KELY) 39-18N 114-51W 1906M
Dec 13, 2018 - 09:53 AM EST / 2018.12.13 1453 UTC
Wind: from the S (170 degrees) at 10 MPH (9 KT):0
Visibility: 10 mile(s):0
Sky conditions: clear
Temperature: 6.1 F (-14.4 C)
Windchill: -7 F (-22 C):2
Dew Point: 1.0 F (-17.2 C)
Relative Humidity: 79%
Pressure (altimeter): 30.42 in. Hg (1030 hPa)
Pressure tendency: 0.01 inches (0.4 hPa) higher than three hours ago
ob: KELY 131453Z AUTO 17009KT 10SM CLR M14/M17 A3042 RMK AO2 SLP368 T11441172 50004
cycle: 15

Station Type Date Time Source
KELY TAF 2018/12/13 12:22 UTC NOAA

TAF KELY 131120Z 1312/1412 17009KT P6SM FEW150 BKN200
FM132100 VRB05KT P6SM SKC
FM140100 17010KT P6SM SKC
FM140700 18013KT P6SM FEW200 BKN250


Example: see airport list